sensor_id;sensor_type;location;lat;lon;timestamp;P1;durP1;ratioP1;P2;durP2;ratioP2
50249;SDS011;36133;42.522;27.456;2022-09-21T00:01:35;2.60;;;1.10;;
50249;SDS011;36133;42.522;27.456;2022-09-21T00:04:01;2.58;;;1.20;;
50249;SDS011;36133;42.522;27.456;2022-09-21T00:06:29;3.00;;;1.30;;
50249;SDS011;36133;42.522;27.456;2022-09-21T00:08:57;2.08;;;1.25;;
50249;SDS011;36133;42.522;27.456;2022-09-21T00:11:23;1.50;;;1.25;;
50249;SDS011;36133;42.522;27.456;2022-09-21T00:13:56;2.03;;;1.40;;
50249;SDS011;36133;42.522;27.456;2022-09-21T00:16:25;3.20;;;1.42;;
50249;SDS011;36133;42.522;27.456;2022-09-21T00:18:51;1.83;;;1.15;;
50249;SDS011;36133;42.522;27.456;2022-09-21T00:21:17;3.30;;;1.40;;
50249;SDS011;36133;42.522;27.456;2022-09-21T00:23:43;9.73;;;2.33;;
50249;SDS011;36133;42.522;27.456;2022-09-21T00:26:14;6.95;;;1.90;;
50249;SDS011;36133;42.522;27.456;2022-09-21T00:28:41;2.30;;;1.60;;
50249;SDS011;36133;42.522;27.456;2022-09-21T00:31:09;2.03;;;1.60;;
50249;SDS011;36133;42.522;27.456;2022-09-21T00:33:36;1.92;;;1.40;;
50249;SDS011;36133;42.522;27.456;2022-09-21T00:36:03;3.05;;;1.42;;
50249;SDS011;36133;42.522;27.456;2022-09-21T00:38:30;2.70;;;1.33;;
50249;SDS011;36133;42.522;27.456;2022-09-21T00:40:56;4.20;;;1.42;;
50249;SDS011;36133;42.522;27.456;2022-09-21T00:43:22;15.05;;;1.90;;
50249;SDS011;36133;42.522;27.456;2022-09-21T00:45:47;4.03;;;1.20;;
50249;SDS011;36133;42.522;27.456;2022-09-21T00:48:16;3.38;;;1.73;;
50249;SDS011;36133;42.522;27.456;2022-09-21T00:50:49;13.02;;;1.70;;
50249;SDS011;36133;42.522;27.456;2022-09-21T00:53:20;4.03;;;1.42;;
50249;SDS011;36133;42.522;27.456;2022-09-21T00:55:47;2.40;;;1.38;;
50249;SDS011;36133;42.522;27.456;2022-09-21T00:58:21;8.10;;;1.77;;
50249;SDS011;36133;42.522;27.456;2022-09-21T01:00:54;2.55;;;1.35;;
50249;SDS011;36133;42.522;27.456;2022-09-21T01:03:21;3.13;;;1.20;;
50249;SDS011;36133;42.522;27.456;2022-09-21T01:05:48;2.15;;;1.25;;
50249;SDS011;36133;42.522;27.456;2022-09-21T01:08:15;1.90;;;1.30;;
50249;SDS011;36133;42.522;27.456;2022-09-21T01:10:47;4.28;;;1.20;;
50249;SDS011;36133;42.522;27.456;2022-09-21T01:16:47;4.95;;;1.40;;
50249;SDS011;36133;42.522;27.456;2022-09-21T01:20:15;3.05;;;1.40;;
50249;SDS011;36133;42.522;27.456;2022-09-21T01:23:05;3.80;;;1.65;;
50249;SDS011;36133;42.522;27.456;2022-09-21T01:31:10;2.28;;;1.33;;
50249;SDS011;36133;42.522;27.456;2022-09-21T01:33:57;1.92;;;1.40;;
50249;SDS011;36133;42.522;27.456;2022-09-21T01:36:27;2.65;;;1.40;;
50249;SDS011;36133;42.522;27.456;2022-09-21T01:57:22;2.50;;;1.30;;
50249;SDS011;36133;42.522;27.456;2022-09-21T02:05:36;5.40;;;1.67;;
50249;SDS011;36133;42.522;27.456;2022-09-21T03:28:27;4.55;;;2.55;;
50249;SDS011;36133;42.522;27.456;2022-09-21T03:36:07;5.45;;;2.67;;
50249;SDS011;36133;42.522;27.456;2022-09-21T03:54:27;3.20;;;2.90;;
50249;SDS011;36133;42.522;27.456;2022-09-21T03:56:53;4.53;;;2.60;;
50249;SDS011;36133;42.522;27.456;2022-09-21T04:04:31;7.72;;;3.00;;
50249;SDS011;36133;42.522;27.456;2022-09-21T04:09:42;4.93;;;2.90;;
50249;SDS011;36133;42.522;27.456;2022-09-21T04:12:09;4.60;;;2.70;;
50249;SDS011;36133;42.522;27.456;2022-09-21T04:17:10;4.82;;;2.67;;
50249;SDS011;36133;42.522;27.456;2022-09-21T04:19:36;3.88;;;2.80;;
50249;SDS011;36133;42.522;27.456;2022-09-21T04:22:01;7.45;;;2.80;;
50249;SDS011;36133;42.522;27.456;2022-09-21T04:24:27;5.05;;;2.75;;
50249;SDS011;36133;42.522;27.456;2022-09-21T04:26:56;7.25;;;3.17;;
50249;SDS011;36133;42.522;27.456;2022-09-21T04:29:22;5.55;;;3.10;;
50249;SDS011;36133;42.522;27.456;2022-09-21T04:31:48;10.90;;;3.15;;
50249;SDS011;36133;42.522;27.456;2022-09-21T04:34:13;4.47;;;3.20;;
50249;SDS011;36133;42.522;27.456;2022-09-21T04:36:39;7.20;;;3.00;;
50249;SDS011;36133;42.522;27.456;2022-09-21T04:39:05;9.73;;;3.05;;
50249;SDS011;36133;42.522;27.456;2022-09-21T04:41:30;4.85;;;2.97;;
50249;SDS011;36133;42.522;27.456;2022-09-21T04:43:56;4.00;;;2.90;;
50249;SDS011;36133;42.522;27.456;2022-09-21T04:46:22;5.60;;;3.10;;
50249;SDS011;36133;42.522;27.456;2022-09-21T04:48:48;4.88;;;3.58;;
50249;SDS011;36133;42.522;27.456;2022-09-21T04:51:14;5.47;;;3.38;;
50249;SDS011;36133;42.522;27.456;2022-09-21T04:53:41;9.82;;;3.92;;
50249;SDS011;36133;42.522;27.456;2022-09-21T04:56:09;5.85;;;3.70;;
50249;SDS011;36133;42.522;27.456;2022-09-21T04:58:37;4.43;;;3.28;;
50249;SDS011;36133;42.522;27.456;2022-09-21T05:01:03;10.38;;;3.83;;
50249;SDS011;36133;42.522;27.456;2022-09-21T05:03:30;4.90;;;3.60;;
50249;SDS011;36133;42.522;27.456;2022-09-21T05:05:56;4.75;;;3.60;;
50249;SDS011;36133;42.522;27.456;2022-09-21T05:08:23;8.77;;;3.45;;
50249;SDS011;36133;42.522;27.456;2022-09-21T05:11:10;10.70;;;3.25;;
50249;SDS011;36133;42.522;27.456;2022-09-21T05:13:38;7.05;;;3.80;;
50249;SDS011;36133;42.522;27.456;2022-09-21T05:16:04;6.50;;;3.17;;
50249;SDS011;36133;42.522;27.456;2022-09-21T05:18:30;5.07;;;3.15;;
50249;SDS011;36133;42.522;27.456;2022-09-21T05:20:56;7.28;;;3.75;;
50249;SDS011;36133;42.522;27.456;2022-09-21T05:23:22;7.50;;;3.65;;
50249;SDS011;36133;42.522;27.456;2022-09-21T05:25:49;9.55;;;3.40;;
50249;SDS011;36133;42.522;27.456;2022-09-21T05:28:15;6.70;;;3.38;;
50249;SDS011;36133;42.522;27.456;2022-09-21T05:30:48;13.07;;;3.95;;
50249;SDS011;36133;42.522;27.456;2022-09-21T05:33:21;11.23;;;3.60;;
50249;SDS011;36133;42.522;27.456;2022-09-21T05:38:35;11.88;;;3.47;;
50249;SDS011;36133;42.522;27.456;2022-09-21T05:41:01;7.10;;;2.67;;
50249;SDS011;36133;42.522;27.456;2022-09-21T05:43:26;4.13;;;3.00;;
50249;SDS011;36133;42.522;27.456;2022-09-21T05:46:02;10.00;;;3.38;;
50249;SDS011;36133;42.522;27.456;2022-09-21T05:48:41;6.80;;;3.60;;
50249;SDS011;36133;42.522;27.456;2022-09-21T06:05:29;8.73;;;4.05;;
50249;SDS011;36133;42.522;27.456;2022-09-21T06:07:55;10.45;;;3.85;;
50249;SDS011;36133;42.522;27.456;2022-09-21T06:10:22;7.38;;;2.97;;
50249;SDS011;36133;42.522;27.456;2022-09-21T06:12:49;7.63;;;4.30;;
50249;SDS011;36133;42.522;27.456;2022-09-21T06:15:15;10.43;;;5.40;;
50249;SDS011;36133;42.522;27.456;2022-09-21T06:17:41;8.27;;;4.10;;
50249;SDS011;36133;42.522;27.456;2022-09-21T06:20:07;9.40;;;4.05;;
50249;SDS011;36133;42.522;27.456;2022-09-21T06:22:33;7.13;;;3.70;;
50249;SDS011;36133;42.522;27.456;2022-09-21T06:25:00;8.07;;;4.20;;
50249;SDS011;36133;42.522;27.456;2022-09-21T06:27:26;4.85;;;3.22;;
50249;SDS011;36133;42.522;27.456;2022-09-21T06:30:00;8.48;;;3.08;;
50249;SDS011;36133;42.522;27.456;2022-09-21T06:32:26;6.45;;;2.53;;
50249;SDS011;36133;42.522;27.456;2022-09-21T06:34:52;4.05;;;2.47;;
50249;SDS011;36133;42.522;27.456;2022-09-21T06:37:18;5.75;;;2.60;;
50249;SDS011;36133;42.522;27.456;2022-09-21T06:39:43;7.60;;;2.33;;
50249;SDS011;36133;42.522;27.456;2022-09-21T06:42:12;5.93;;;1.92;;
50249;SDS011;36133;42.522;27.456;2022-09-21T06:44:58;12.60;;;2.00;;
50249;SDS011;36133;42.522;27.456;2022-09-21T06:47:25;5.93;;;1.63;;
50249;SDS011;36133;42.522;27.456;2022-09-21T06:49:50;10.95;;;2.20;;
50249;SDS011;36133;42.522;27.456;2022-09-21T06:52:18;2.33;;;1.40;;
50249;SDS011;36133;42.522;27.456;2022-09-21T06:54:46;4.07;;;2.33;;
50249;SDS011;36133;42.522;27.456;2022-09-21T06:57:12;2.63;;;1.55;;
50249;SDS011;36133;42.522;27.456;2022-09-21T06:59:38;4.93;;;1.90;;
50249;SDS011;36133;42.522;27.456;2022-09-21T07:02:04;5.85;;;1.65;;
50249;SDS011;36133;42.522;27.456;2022-09-21T07:04:31;4.32;;;1.73;;
50249;SDS011;36133;42.522;27.456;2022-09-21T07:06:56;4.45;;;2.05;;
50249;SDS011;36133;42.522;27.456;2022-09-21T07:09:22;2.90;;;1.60;;
50249;SDS011;36133;42.522;27.456;2022-09-21T07:11:48;5.65;;;1.70;;
50249;SDS011;36133;42.522;27.456;2022-09-21T07:14:13;2.47;;;1.45;;
50249;SDS011;36133;42.522;27.456;2022-09-21T07:16:40;2.85;;;1.70;;
50249;SDS011;36133;42.522;27.456;2022-09-21T07:19:07;2.53;;;1.10;;
50249;SDS011;36133;42.522;27.456;2022-09-21T07:21:33;6.60;;;1.70;;
50249;SDS011;36133;42.522;27.456;2022-09-21T07:23:59;1.73;;;0.98;;
50249;SDS011;36133;42.522;27.456;2022-09-21T07:26:24;2.35;;;1.40;;
50249;SDS011;36133;42.522;27.456;2022-09-21T07:28:50;2.17;;;1.17;;
50249;SDS011;36133;42.522;27.456;2022-09-21T07:31:17;2.25;;;1.30;;
50249;SDS011;36133;42.522;27.456;2022-09-21T07:33:43;1.23;;;0.88;;
50249;SDS011;36133;42.522;27.456;2022-09-21T07:36:12;3.42;;;1.00;;
50249;SDS011;36133;42.522;27.456;2022-09-21T07:38:39;3.33;;;1.50;;
50249;SDS011;36133;42.522;27.456;2022-09-21T07:41:07;2.13;;;1.20;;
50249;SDS011;36133;42.522;27.456;2022-09-21T07:43:34;2.60;;;0.90;;
50249;SDS011;36133;42.522;27.456;2022-09-21T07:46:04;1.70;;;1.25;;
50249;SDS011;36133;42.522;27.456;2022-09-21T07:48:34;4.40;;;1.30;;
50249;SDS011;36133;42.522;27.456;2022-09-21T07:51:01;1.88;;;1.02;;
50249;SDS011;36133;42.522;27.456;2022-09-21T07:53:37;2.95;;;0.93;;
50249;SDS011;36133;42.522;27.456;2022-09-21T07:56:08;1.95;;;1.23;;
50249;SDS011;36133;42.522;27.456;2022-09-21T07:58:36;1.50;;;0.88;;
50249;SDS011;36133;42.522;27.456;2022-09-21T08:01:21;2.58;;;1.15;;
50249;SDS011;36133;42.522;27.456;2022-09-21T08:03:51;3.03;;;1.23;;
50249;SDS011;36133;42.522;27.456;2022-09-21T08:06:18;2.78;;;0.90;;
50249;SDS011;36133;42.522;27.456;2022-09-21T08:08:45;6.07;;;1.40;;
50249;SDS011;36133;42.522;27.456;2022-09-21T08:11:12;2.60;;;1.33;;
50249;SDS011;36133;42.522;27.456;2022-09-21T08:13:39;3.90;;;0.95;;
50249;SDS011;36133;42.522;27.456;2022-09-21T08:16:04;4.25;;;1.30;;
50249;SDS011;36133;42.522;27.456;2022-09-21T08:18:37;1.65;;;0.80;;
50249;SDS011;36133;42.522;27.456;2022-09-21T08:21:04;4.63;;;1.27;;
50249;SDS011;36133;42.522;27.456;2022-09-21T08:23:30;2.45;;;0.88;;
50249;SDS011;36133;42.522;27.456;2022-09-21T08:26:00;5.80;;;1.27;;
50249;SDS011;36133;42.522;27.456;2022-09-21T08:28:27;2.50;;;1.00;;
50249;SDS011;36133;42.522;27.456;2022-09-21T08:30:53;3.17;;;0.98;;
50249;SDS011;36133;42.522;27.456;2022-09-21T08:38:52;2.87;;;1.43;;
50249;SDS011;36133;42.522;27.456;2022-09-21T08:43:57;2.75;;;0.90;;
50249;SDS011;36133;42.522;27.456;2022-09-21T08:46:29;4.50;;;1.20;;
50249;SDS011;36133;42.522;27.456;2022-09-21T08:49:03;1.13;;;1.00;;
50249;SDS011;36133;42.522;27.456;2022-09-21T08:51:37;1.90;;;0.90;;
50249;SDS011;36133;42.522;27.456;2022-09-21T08:54:48;2.35;;;1.10;;
50249;SDS011;36133;42.522;27.456;2022-09-21T08:57:23;5.28;;;1.27;;
50249;SDS011;36133;42.522;27.456;2022-09-21T09:17:05;0.90;;;0.60;;
50249;SDS011;36133;42.522;27.456;2022-09-21T09:19:57;1.48;;;0.60;;
50249;SDS011;36133;42.522;27.456;2022-09-21T09:22:47;1.00;;;0.68;;
50249;SDS011;36133;42.522;27.456;2022-09-21T09:25:41;4.18;;;0.82;;
50249;SDS011;36133;42.522;27.456;2022-09-21T09:28:29;2.83;;;1.00;;
50249;SDS011;36133;42.522;27.456;2022-09-21T09:31:00;1.80;;;0.80;;
50249;SDS011;36133;42.522;27.456;2022-09-21T09:36:17;1.42;;;0.60;;
50249;SDS011;36133;42.522;27.456;2022-09-21T09:38:59;2.85;;;1.10;;
50249;SDS011;36133;42.522;27.456;2022-09-21T09:47:29;3.88;;;1.30;;
50249;SDS011;36133;42.522;27.456;2022-09-21T09:52:37;4.03;;;0.52;;
50249;SDS011;36133;42.522;27.456;2022-09-21T09:55:14;0.73;;;0.70;;
50249;SDS011;36133;42.522;27.456;2022-09-21T09:57:49;0.70;;;0.40;;
50249;SDS011;36133;42.522;27.456;2022-09-21T10:00:17;3.75;;;0.68;;
50249;SDS011;36133;42.522;27.456;2022-09-21T10:02:48;2.55;;;1.10;;
50249;SDS011;36133;42.522;27.456;2022-09-21T10:05:34;1.10;;;0.60;;
50249;SDS011;36133;42.522;27.456;2022-09-21T10:08:04;1.40;;;0.88;;
50249;SDS011;36133;42.522;27.456;2022-09-21T10:10:31;3.63;;;0.95;;
50249;SDS011;36133;42.522;27.456;2022-09-21T10:13:09;1.75;;;1.00;;
50249;SDS011;36133;42.522;27.456;2022-09-21T10:15:55;1.95;;;0.95;;
50249;SDS011;36133;42.522;27.456;2022-09-21T10:23:41;3.00;;;0.70;;
50249;SDS011;36133;42.522;27.456;2022-09-21T10:26:12;0.40;;;0.40;;
50249;SDS011;36133;42.522;27.456;2022-09-21T10:28:53;2.35;;;0.70;;
50249;SDS011;36133;42.522;27.456;2022-09-21T10:31:27;1.27;;;0.82;;
50249;SDS011;36133;42.522;27.456;2022-09-21T10:36:33;0.77;;;0.50;;
50249;SDS011;36133;42.522;27.456;2022-09-21T10:41:56;1.42;;;0.90;;
50249;SDS011;36133;42.522;27.456;2022-09-21T10:47:17;2.25;;;0.77;;
50249;SDS011;36133;42.522;27.456;2022-09-21T10:49:55;1.63;;;0.90;;
50249;SDS011;36133;42.522;27.456;2022-09-21T10:52:23;3.33;;;1.00;;
50249;SDS011;36133;42.522;27.456;2022-09-21T10:54:56;2.75;;;1.20;;
50249;SDS011;36133;42.522;27.456;2022-09-21T10:57:22;3.75;;;0.95;;
50249;SDS011;36133;42.522;27.456;2022-09-21T10:59:49;1.85;;;0.88;;
50249;SDS011;36133;42.522;27.456;2022-09-21T11:02:49;2.55;;;1.15;;
50249;SDS011;36133;42.522;27.456;2022-09-21T11:05:16;2.60;;;0.90;;
50249;SDS011;36133;42.522;27.456;2022-09-21T11:10:21;0.77;;;0.60;;
50249;SDS011;36133;42.522;27.456;2022-09-21T11:21:04;2.97;;;1.27;;
50249;SDS011;36133;42.522;27.456;2022-09-21T11:23:40;1.48;;;0.93;;
50249;SDS011;36133;42.522;27.456;2022-09-21T11:29:36;3.92;;;0.85;;
50249;SDS011;36133;42.522;27.456;2022-09-21T11:32:21;4.30;;;1.10;;
50249;SDS011;36133;42.522;27.456;2022-09-21T11:41:06;0.98;;;0.60;;
50249;SDS011;36133;42.522;27.456;2022-09-21T12:00:24;1.00;;;0.80;;
50249;SDS011;36133;42.522;27.456;2022-09-21T12:03:20;4.03;;;1.10;;
50249;SDS011;36133;42.522;27.456;2022-09-21T12:06:15;1.30;;;1.10;;
50249;SDS011;36133;42.522;27.456;2022-09-21T12:08:54;2.63;;;1.40;;
50249;SDS011;36133;42.522;27.456;2022-09-21T12:11:42;2.03;;;1.38;;
50249;SDS011;36133;42.522;27.456;2022-09-21T12:39:12;5.82;;;1.40;;
50249;SDS011;36133;42.522;27.456;2022-09-21T12:41:56;1.30;;;1.00;;
50249;SDS011;36133;42.522;27.456;2022-09-21T12:44:39;1.80;;;0.90;;
50249;SDS011;36133;42.522;27.456;2022-09-21T12:47:43;1.85;;;1.10;;
50249;SDS011;36133;42.522;27.456;2022-09-21T12:52:56;4.88;;;2.40;;
50249;SDS011;36133;42.522;27.456;2022-09-21T12:58:25;2.38;;;1.17;;
50249;SDS011;36133;42.522;27.456;2022-09-21T13:03:34;1.02;;;0.88;;
50249;SDS011;36133;42.522;27.456;2022-09-21T13:08:39;0.90;;;0.80;;
50249;SDS011;36133;42.522;27.456;2022-09-21T13:11:09;2.20;;;0.80;;
50249;SDS011;36133;42.522;27.456;2022-09-21T13:13:45;3.30;;;1.10;;
50249;SDS011;36133;42.522;27.456;2022-09-21T13:16:32;1.40;;;0.90;;
50249;SDS011;36133;42.522;27.456;2022-09-21T13:19:03;2.97;;;1.10;;
50249;SDS011;36133;42.522;27.456;2022-09-21T13:21:40;2.47;;;0.75;;
50249;SDS011;36133;42.522;27.456;2022-09-21T13:26:55;3.58;;;0.80;;
50249;SDS011;36133;42.522;27.456;2022-09-21T13:29:31;2.05;;;0.93;;
50249;SDS011;36133;42.522;27.456;2022-09-21T13:39:41;8.82;;;1.45;;
50249;SDS011;36133;42.522;27.456;2022-09-21T13:47:46;2.53;;;1.20;;
50249;SDS011;36133;42.522;27.456;2022-09-21T13:53:13;1.90;;;0.98;;
50249;SDS011;36133;42.522;27.456;2022-09-21T13:58:41;2.00;;;0.90;;
50249;SDS011;36133;42.522;27.456;2022-09-21T14:03:56;4.55;;;1.20;;
50249;SDS011;36133;42.522;27.456;2022-09-21T14:06:27;1.42;;;1.08;;
50249;SDS011;36133;42.522;27.456;2022-09-21T14:09:06;3.33;;;1.20;;
50249;SDS011;36133;42.522;27.456;2022-09-21T14:11:43;1.10;;;1.00;;
50249;SDS011;36133;42.522;27.456;2022-09-21T14:17:01;1.35;;;0.93;;
50249;SDS011;36133;42.522;27.456;2022-09-21T14:24:46;3.00;;;1.40;;
50249;SDS011;36133;42.522;27.456;2022-09-21T14:27:24;4.00;;;1.60;;
50249;SDS011;36133;42.522;27.456;2022-09-21T14:29:52;3.72;;;1.30;;
50249;SDS011;36133;42.522;27.456;2022-09-21T14:32:25;2.25;;;1.75;;
50249;SDS011;36133;42.522;27.456;2022-09-21T14:35:05;6.05;;;1.85;;
50249;SDS011;36133;42.522;27.456;2022-09-21T14:37:39;2.45;;;1.50;;
50249;SDS011;36133;42.522;27.456;2022-09-21T14:40:20;3.08;;;1.67;;
50249;SDS011;36133;42.522;27.456;2022-09-21T14:42:52;3.70;;;1.55;;
50249;SDS011;36133;42.522;27.456;2022-09-21T14:45:22;3.20;;;1.80;;
50249;SDS011;36133;42.522;27.456;2022-09-21T14:48:07;4.10;;;1.60;;
50249;SDS011;36133;42.522;27.456;2022-09-21T14:50:48;2.42;;;1.48;;
50249;SDS011;36133;42.522;27.456;2022-09-21T14:53:24;11.13;;;2.67;;
50249;SDS011;36133;42.522;27.456;2022-09-21T14:58:49;3.90;;;1.50;;
50249;SDS011;36133;42.522;27.456;2022-09-21T15:01:33;7.10;;;1.65;;
50249;SDS011;36133;42.522;27.456;2022-09-21T15:04:23;3.85;;;1.50;;
50249;SDS011;36133;42.522;27.456;2022-09-21T15:10:30;2.22;;;1.55;;
50249;SDS011;36133;42.522;27.456;2022-09-21T15:13:31;4.00;;;1.40;;
50249;SDS011;36133;42.522;27.456;2022-09-21T15:21:47;4.60;;;2.33;;
50249;SDS011;36133;42.522;27.456;2022-09-21T15:24:24;3.88;;;1.90;;
50249;SDS011;36133;42.522;27.456;2022-09-21T15:26:54;4.97;;;2.25;;
50249;SDS011;36133;42.522;27.456;2022-09-21T15:29:35;7.70;;;2.45;;
50249;SDS011;36133;42.522;27.456;2022-09-21T15:32:05;3.47;;;2.35;;
50249;SDS011;36133;42.522;27.456;2022-09-21T15:38:30;5.20;;;2.40;;
50249;SDS011;36133;42.522;27.456;2022-09-21T15:41:02;3.50;;;2.15;;
50249;SDS011;36133;42.522;27.456;2022-09-21T15:43:29;5.75;;;2.80;;
50249;SDS011;36133;42.522;27.456;2022-09-21T15:46:04;5.10;;;2.97;;
50249;SDS011;36133;42.522;27.456;2022-09-21T15:48:34;3.38;;;2.08;;
50249;SDS011;36133;42.522;27.456;2022-09-21T15:53:43;1.08;;;0.68;;
50249;SDS011;36133;42.522;27.456;2022-09-21T15:56:45;1.70;;;0.88;;
50249;SDS011;36133;42.522;27.456;2022-09-21T15:59:10;2.40;;;1.02;;
50249;SDS011;36133;42.522;27.456;2022-09-21T16:01:50;3.25;;;1.13;;
50249;SDS011;36133;42.522;27.456;2022-09-21T16:04:20;3.33;;;2.22;;
50249;SDS011;36133;42.522;27.456;2022-09-21T16:07:00;8.82;;;2.78;;
50249;SDS011;36133;42.522;27.456;2022-09-21T16:09:43;11.95;;;3.40;;
50249;SDS011;36133;42.522;27.456;2022-09-21T16:14:53;3.92;;;2.42;;
50249;SDS011;36133;42.522;27.456;2022-09-21T16:17:26;5.43;;;3.60;;
50249;SDS011;36133;42.522;27.456;2022-09-21T16:22:20;5.18;;;2.53;;
50249;SDS011;36133;42.522;27.456;2022-09-21T16:24:58;7.07;;;2.63;;
50249;SDS011;36133;42.522;27.456;2022-09-21T16:27:26;3.05;;;1.92;;
50249;SDS011;36133;42.522;27.456;2022-09-21T16:29:53;4.57;;;2.83;;
50249;SDS011;36133;42.522;27.456;2022-09-21T16:32:26;2.53;;;2.05;;
50249;SDS011;36133;42.522;27.456;2022-09-21T16:37:51;2.80;;;1.48;;
50249;SDS011;36133;42.522;27.456;2022-09-21T16:40:22;4.25;;;2.03;;
50249;SDS011;36133;42.522;27.456;2022-09-21T16:42:52;5.78;;;2.13;;
50249;SDS011;36133;42.522;27.456;2022-09-21T16:45:30;2.72;;;1.67;;
50249;SDS011;36133;42.522;27.456;2022-09-21T16:47:56;2.53;;;1.75;;
50249;SDS011;36133;42.522;27.456;2022-09-21T16:50:23;3.10;;;2.10;;
50249;SDS011;36133;42.522;27.456;2022-09-21T16:52:49;2.55;;;1.88;;
50249;SDS011;36133;42.522;27.456;2022-09-21T16:55:16;2.35;;;1.90;;
50249;SDS011;36133;42.522;27.456;2022-09-21T16:57:44;4.63;;;1.90;;
50249;SDS011;36133;42.522;27.456;2022-09-21T17:00:13;3.45;;;1.77;;
50249;SDS011;36133;42.522;27.456;2022-09-21T17:02:44;2.42;;;1.70;;
50249;SDS011;36133;42.522;27.456;2022-09-21T17:05:14;4.30;;;1.80;;
50249;SDS011;36133;42.522;27.456;2022-09-21T17:07:52;4.00;;;1.88;;
50249;SDS011;36133;42.522;27.456;2022-09-21T17:10:25;2.65;;;1.90;;
50249;SDS011;36133;42.522;27.456;2022-09-21T17:12:55;3.13;;;2.15;;
50249;SDS011;36133;42.522;27.456;2022-09-21T17:15:21;3.22;;;1.70;;
50249;SDS011;36133;42.522;27.456;2022-09-21T17:17:48;2.15;;;1.95;;
50249;SDS011;36133;42.522;27.456;2022-09-21T17:20:36;2.33;;;1.95;;
50249;SDS011;36133;42.522;27.456;2022-09-21T17:23:06;5.30;;;2.55;;
50249;SDS011;36133;42.522;27.456;2022-09-21T17:25:33;3.22;;;2.40;;
50249;SDS011;36133;42.522;27.456;2022-09-21T17:27:59;5.80;;;3.03;;
50249;SDS011;36133;42.522;27.456;2022-09-21T17:30:26;5.22;;;2.42;;
50249;SDS011;36133;42.522;27.456;2022-09-21T17:32:52;6.57;;;3.53;;
50249;SDS011;36133;42.522;27.456;2022-09-21T17:35:24;6.05;;;2.63;;
50249;SDS011;36133;42.522;27.456;2022-09-21T17:37:53;7.10;;;3.13;;
50249;SDS011;36133;42.522;27.456;2022-09-21T17:40:19;3.30;;;2.53;;
50249;SDS011;36133;42.522;27.456;2022-09-21T17:42:45;5.63;;;2.85;;
50249;SDS011;36133;42.522;27.456;2022-09-21T17:47:50;6.32;;;3.03;;
50249;SDS011;36133;42.522;27.456;2022-09-21T17:50:23;4.05;;;2.30;;
50249;SDS011;36133;42.522;27.456;2022-09-21T17:52:53;3.67;;;2.38;;
50249;SDS011;36133;42.522;27.456;2022-09-21T17:55:41;3.45;;;2.35;;
50249;SDS011;36133;42.522;27.456;2022-09-21T18:01:21;5.72;;;2.80;;
50249;SDS011;36133;42.522;27.456;2022-09-21T18:04:00;5.72;;;2.90;;
50249;SDS011;36133;42.522;27.456;2022-09-21T18:06:25;4.43;;;3.10;;
50249;SDS011;36133;42.522;27.456;2022-09-21T18:08:52;6.60;;;2.72;;
50249;SDS011;36133;42.522;27.456;2022-09-21T18:14:16;8.73;;;3.83;;
50249;SDS011;36133;42.522;27.456;2022-09-21T18:25:15;5.13;;;2.67;;
50249;SDS011;36133;42.522;27.456;2022-09-21T18:27:56;4.47;;;2.75;;
50249;SDS011;36133;42.522;27.456;2022-09-21T18:30:24;2.47;;;2.13;;
50249;SDS011;36133;42.522;27.456;2022-09-21T18:32:56;2.92;;;2.35;;
50249;SDS011;36133;42.522;27.456;2022-09-21T18:35:39;3.40;;;1.90;;
50249;SDS011;36133;42.522;27.456;2022-09-21T18:41:34;5.18;;;3.17;;
50249;SDS011;36133;42.522;27.456;2022-09-21T18:53:17;5.57;;;3.10;;
50249;SDS011;36133;42.522;27.456;2022-09-21T18:55:49;5.25;;;3.30;;
50249;SDS011;36133;42.522;27.456;2022-09-21T18:58:16;4.00;;;2.55;;
50249;SDS011;36133;42.522;27.456;2022-09-21T19:00:42;7.65;;;4.10;;
50249;SDS011;36133;42.522;27.456;2022-09-21T19:03:12;4.47;;;2.83;;
50249;SDS011;36133;42.522;27.456;2022-09-21T19:05:42;2.97;;;2.25;;
50249;SDS011;36133;42.522;27.456;2022-09-21T19:08:25;3.20;;;2.45;;
50249;SDS011;36133;42.522;27.456;2022-09-21T19:20:03;3.00;;;2.40;;
50249;SDS011;36133;42.522;27.456;2022-09-21T19:25:28;3.67;;;2.22;;
50249;SDS011;36133;42.522;27.456;2022-09-21T19:28:01;3.67;;;2.40;;
50249;SDS011;36133;42.522;27.456;2022-09-21T19:30:53;4.68;;;2.67;;
50249;SDS011;36133;42.522;27.456;2022-09-21T19:33:33;4.03;;;2.33;;
50249;SDS011;36133;42.522;27.456;2022-09-21T19:35:59;3.83;;;2.45;;
50249;SDS011;36133;42.522;27.456;2022-09-21T19:38:26;2.90;;;2.20;;
50249;SDS011;36133;42.522;27.456;2022-09-21T19:40:55;3.22;;;2.30;;
50249;SDS011;36133;42.522;27.456;2022-09-21T19:43:47;2.75;;;2.20;;
50249;SDS011;36133;42.522;27.456;2022-09-21T19:46:29;3.73;;;2.50;;
50249;SDS011;36133;42.522;27.456;2022-09-21T19:51:45;8.05;;;2.65;;
50249;SDS011;36133;42.522;27.456;2022-09-21T19:54:18;3.03;;;2.25;;
50249;SDS011;36133;42.522;27.456;2022-09-21T19:57:13;6.72;;;2.70;;
50249;SDS011;36133;42.522;27.456;2022-09-21T20:00:07;3.28;;;2.28;;
50249;SDS011;36133;42.522;27.456;2022-09-21T20:02:43;2.22;;;2.00;;
50249;SDS011;36133;42.522;27.456;2022-09-21T20:05:21;4.38;;;2.17;;
50249;SDS011;36133;42.522;27.456;2022-09-21T20:10:47;4.03;;;2.40;;
50249;SDS011;36133;42.522;27.456;2022-09-21T20:13:27;2.30;;;2.03;;
50249;SDS011;36133;42.522;27.456;2022-09-21T20:16:15;2.35;;;1.92;;
50249;SDS011;36133;42.522;27.456;2022-09-21T20:19:09;3.40;;;1.90;;
50249;SDS011;36133;42.522;27.456;2022-09-21T20:22:00;2.45;;;2.00;;
50249;SDS011;36133;42.522;27.456;2022-09-21T20:24:32;3.75;;;2.20;;
50249;SDS011;36133;42.522;27.456;2022-09-21T20:27:09;2.63;;;2.08;;
50249;SDS011;36133;42.522;27.456;2022-09-21T20:29:44;2.20;;;2.00;;
50249;SDS011;36133;42.522;27.456;2022-09-21T20:32:10;2.90;;;2.13;;
50249;SDS011;36133;42.522;27.456;2022-09-21T20:34:35;3.10;;;2.40;;
50249;SDS011;36133;42.522;27.456;2022-09-21T20:37:08;2.83;;;2.20;;
50249;SDS011;36133;42.522;27.456;2022-09-21T20:39:36;2.42;;;2.10;;
50249;SDS011;36133;42.522;27.456;2022-09-21T20:42:02;2.28;;;2.08;;
50249;SDS011;36133;42.522;27.456;2022-09-21T20:44:29;3.35;;;2.30;;
50249;SDS011;36133;42.522;27.456;2022-09-21T20:46:54;2.75;;;2.45;;
50249;SDS011;36133;42.522;27.456;2022-09-21T20:49:20;3.22;;;2.53;;
50249;SDS011;36133;42.522;27.456;2022-09-21T20:51:46;3.45;;;2.60;;
50249;SDS011;36133;42.522;27.456;2022-09-21T20:54:12;3.72;;;2.90;;
50249;SDS011;36133;42.522;27.456;2022-09-21T20:56:38;4.25;;;3.60;;
50249;SDS011;36133;42.522;27.456;2022-09-21T20:59:04;5.10;;;3.33;;
50249;SDS011;36133;42.522;27.456;2022-09-21T21:01:30;4.63;;;3.58;;
50249;SDS011;36133;42.522;27.456;2022-09-21T21:03:56;4.07;;;3.03;;
50249;SDS011;36133;42.522;27.456;2022-09-21T21:06:27;3.53;;;2.75;;
50249;SDS011;36133;42.522;27.456;2022-09-21T21:08:55;3.55;;;2.70;;
50249;SDS011;36133;42.522;27.456;2022-09-21T21:11:21;4.75;;;2.45;;
50249;SDS011;36133;42.522;27.456;2022-09-21T21:13:47;5.70;;;2.92;;
50249;SDS011;36133;42.522;27.456;2022-09-21T21:16:12;3.58;;;2.22;;
50249;SDS011;36133;42.522;27.456;2022-09-21T21:18:41;3.15;;;2.30;;
50249;SDS011;36133;42.522;27.456;2022-09-21T21:21:07;4.07;;;2.90;;
50249;SDS011;36133;42.522;27.456;2022-09-21T21:23:33;2.53;;;2.20;;
50249;SDS011;36133;42.522;27.456;2022-09-21T21:26:18;3.05;;;1.95;;
50249;SDS011;36133;42.522;27.456;2022-09-21T21:28:44;2.38;;;1.80;;
50249;SDS011;36133;42.522;27.456;2022-09-21T21:31:10;3.03;;;2.00;;
50249;SDS011;36133;42.522;27.456;2022-09-21T21:33:36;1.88;;;1.63;;